Oupeye, Belgium
Current Conditions -  °F | °C
As of 8:20 PM on Sunday 21 Dec 2014 (Local Time) from EBLG Reporting Station
Broken Clouds Broken Clouds  
Wind Chill: 36°   Ceiling: 1100
Heat Index: 45°   Visibility: 6mi
Dew Point: 41°   Wind: 21mph
Humidity: 87%   Direction: 220°SW
Pressure: 30.3"   Gusts: NA
Location:  50.71°N, 5.65°E
Report Text: EBLG 211920Z 22018KT 9999 FEW006 BKN011 07/05 Q1026 TEMPO 5000 RADZ
Loading
Personal Weather Stations






























Interactive Weather Map New forecast layout! Learn more

10-Day Weather Forecast

Advertisements
Track Severe Weather on mobile